Time;durP1;ratioP1;P1;durP2;ratioP2;P2;SDS_P1;SDS_P2;PMS_P1;PMS_P2;Temp;Humidity;BMP_temperature;BMP_pressure;BME280_temperature;BME280_humidity;BME280_pressure;Samples;Min_cycle;Max_cycle;Signal;HPM_P1;HPM_P2
2022/03/07 00:01:08;;;;;;;16.55;9.75;;;-3.00;99.90;;;;;;5032245;28;20041;-48
2022/03/07 00:03:34;;;;;;;18.65;9.93;;;-3.00;99.90;;;;;;5032152;28;20048;-45
2022/03/07 00:06:00;;;;;;;21.08;10.80;;;-3.00;99.90;;;;;;5032141;28;20042;-45
2022/03/07 00:08:26;;;;;;;17.90;9.70;;;-3.00;99.90;;;;;;5032352;28;20033;-47
2022/03/07 00:10:52;;;;;;;20.90;10.32;;;-3.10;99.90;;;;;;5032613;28;20360;-45
2022/03/07 00:13:21;;;;;;;19.50;10.10;;;-3.10;99.90;;;;;;5031697;28;20053;-44
2022/03/07 00:15:46;;;;;;;18.05;11.75;;;-3.10;99.90;;;;;;5031985;28;20483;-42
2022/03/07 00:18:12;;;;;;;23.13;11.40;;;-3.10;99.90;;;;;;5031614;28;20057;-43
2022/03/07 00:20:38;;;;;;;21.60;12.88;;;-3.20;99.90;;;;;;5031870;28;20049;-44
2022/03/07 00:23:04;;;;;;;26.52;12.63;;;-3.10;99.90;;;;;;5031598;28;20053;-43
2022/03/07 00:25:30;;;;;;;24.17;14.02;;;-3.10;99.90;;;;;;5031256;28;20141;-47
2022/03/07 00:27:55;;;;;;;28.83;13.73;;;-3.10;99.90;;;;;;5031617;28;20064;-45
2022/03/07 00:30:21;;;;;;;26.40;13.48;;;-3.20;99.90;;;;;;5031900;28;20037;-44
2022/03/07 00:32:47;;;;;;;25.55;12.40;;;-3.10;99.90;;;;;;5030415;28;20060;-43
2022/03/07 00:35:14;;;;;;;29.67;13.93;;;-3.20;99.90;;;;;;5031990;28;20041;-43
2022/03/07 00:37:40;;;;;;;22.83;13.10;;;-3.10;99.90;;;;;;5031818;28;20046;-44
2022/03/07 00:40:08;;;;;;;24.27;11.95;;;-3.20;99.90;;;;;;5031616;28;20037;-45
2022/03/07 00:42:34;;;;;;;22.80;11.40;;;-3.20;99.90;;;;;;5031686;28;20361;-44
2022/03/07 00:45:00;;;;;;;22.80;11.57;;;-3.30;99.90;;;;;;5031365;28;20052;-43
2022/03/07 00:47:26;;;;;;;22.80;11.10;;;-3.30;99.90;;;;;;5031425;28;20065;-43
2022/03/07 00:49:51;;;;;;;19.80;10.95;;;-3.20;99.90;;;;;;5031632;28;20088;-45
2022/03/07 00:52:17;;;;;;;22.75;11.45;;;-3.30;99.90;;;;;;5031411;28;20126;-43
2022/03/07 00:54:43;;;;;;;25.77;11.45;;;-3.30;99.90;;;;;;5031337;28;20067;-43
2022/03/07 00:57:09;;;;;;;20.88;11.52;;;-3.30;99.90;;;;;;5031468;28;20088;-46
2022/03/07 00:59:34;;;;;;;22.48;11.30;;;-3.30;99.90;;;;;;5031620;28;20045;-44
2022/03/07 01:02:00;;;;;;;21.75;10.70;;;-3.40;99.90;;;;;;5030235;28;20056;-43
2022/03/07 01:04:26;;;;;;;19.35;10.98;;;-3.50;99.90;;;;;;5031166;28;20038;-43
2022/03/07 01:06:51;;;;;;;18.48;11.77;;;-3.50;99.90;;;;;;5031235;28;20480;-44
2022/03/07 01:09:17;;;;;;;23.10;10.60;;;-3.50;99.90;;;;;;5031011;28;20053;-44
2022/03/07 01:11:43;;;;;;;20.70;10.00;;;-3.60;99.90;;;;;;5031158;28;20479;-43
2022/03/07 01:14:08;;;;;;;20.10;10.68;;;-3.70;99.90;;;;;;5030829;28;20033;-46
2022/03/07 01:16:34;;;;;;;21.02;12.35;;;-3.90;99.90;;;;;;5031210;28;20041;-44
2022/03/07 01:19:00;;;;;;;21.95;11.60;;;-3.90;99.90;;;;;;5030799;28;20475;-43
2022/03/07 01:21:25;;;;;;;27.98;12.82;;;-4.00;99.90;;;;;;5031167;28;20044;-44
2022/03/07 01:23:51;;;;;;;25.42;13.80;;;-4.00;99.90;;;;;;5030948;28;20409;-43
2022/03/07 01:26:17;;;;;;;22.20;11.75;;;-4.00;99.90;;;;;;5030973;28;20099;-45
2022/03/07 01:28:43;;;;;;;24.30;12.85;;;-4.00;99.90;;;;;;5030717;28;20125;-43
2022/03/07 01:31:08;;;;;;;28.23;13.88;;;-3.90;99.90;;;;;;5031052;28;20049;-46
2022/03/07 01:33:34;;;;;;;26.10;13.10;;;-4.00;99.90;;;;;;5031091;28;20068;-43
2022/03/07 01:35:59;;;;;;;22.25;12.07;;;-4.10;99.90;;;;;;5031224;28;20042;-45
2022/03/07 01:38:25;;;;;;;20.67;11.40;;;-4.10;99.90;;;;;;5033304;28;20095;-44
2022/03/07 01:40:51;;;;;;;25.65;12.43;;;-4.10;99.90;;;;;;5034682;28;20095;-43
2022/03/07 01:43:17;;;;;;;25.85;13.35;;;-4.20;99.90;;;;;;5034829;28;20170;-43
2022/03/07 01:45:43;;;;;;;22.85;11.60;;;-4.20;99.90;;;;;;5034668;28;20124;-42
2022/03/07 01:48:09;;;;;;;21.52;11.70;;;-4.30;99.90;;;;;;5034925;28;20441;-43
2022/03/07 01:50:35;;;;;;;23.55;11.07;;;-4.20;99.90;;;;;;5033315;28;20511;-44
2022/03/07 01:53:01;;;;;;;25.13;12.80;;;-4.20;99.90;;;;;;5034905;28;20041;-46
2022/03/07 01:55:27;;;;;;;17.05;11.25;;;-4.30;99.90;;;;;;5034606;28;20522;-42
2022/03/07 01:57:53;;;;;;;24.73;14.30;;;-4.30;99.90;;;;;;5034552;28;20066;-44
2022/03/07 02:00:23;;;;;;;31.13;13.75;;;-4.20;99.90;;;;;;5034326;28;20380;-43
2022/03/07 02:02:49;;;;;;;33.88;16.60;;;-4.20;99.90;;;;;;5034350;28;20513;-43
2022/03/07 02:05:15;;;;;;;31.60;15.07;;;-4.10;99.90;;;;;;5034123;28;20037;-43
2022/03/07 02:07:41;;;;;;;28.00;15.63;;;-4.00;99.90;;;;;;5034515;28;20728;-43
2022/03/07 02:10:09;;;;;;;32.50;14.90;;;-4.00;99.90;;;;;;5034229;28;20041;-44
2022/03/07 02:12:35;;;;;;;30.50;15.23;;;-4.00;99.90;;;;;;5033902;28;20045;-42
2022/03/07 02:15:02;;;;;;;36.88;16.08;;;-4.00;99.90;;;;;;5034307;28;20161;-44
2022/03/07 02:17:29;;;;;;;38.55;16.50;;;-2.90;99.90;;;;;;5033585;28;20131;-44
2022/03/07 02:19:55;;;;;;;28.88;14.50;;;-4.00;99.90;;;;;;5034440;28;20050;-42
2022/03/07 02:22:22;;;;;;;29.02;14.65;;;-4.00;99.90;;;;;;5034001;28;20090;-43
2022/03/07 02:24:48;;;;;;;31.70;15.90;;;-4.10;99.90;;;;;;5033544;28;20481;-43
2022/03/07 02:27:18;;;;;;;31.73;14.90;;;-4.20;99.90;;;;;;5034213;28;20128;-44
2022/03/07 02:29:44;;;;;;;30.08;14.20;;;-4.20;99.90;;;;;;5034178;28;20041;-42
2022/03/07 02:32:11;;;;;;;24.83;14.05;;;-4.20;99.90;;;;;;5034132;28;20040;-45
2022/03/07 02:34:36;;;;;;;28.55;13.57;;;-4.30;99.90;;;;;;5033908;28;20033;-44
2022/03/07 02:37:03;;;;;;;34.38;14.60;;;-4.30;99.90;;;;;;5033779;28;20048;-43
2022/03/07 02:39:28;;;;;;;23.60;13.23;;;-4.20;99.90;;;;;;5033240;28;20479;-43
2022/03/07 02:41:55;;;;;;;28.95;13.85;;;-4.30;99.90;;;;;;5033692;28;20052;-42
2022/03/07 02:44:21;;;;;;;28.40;13.43;;;-4.30;99.90;;;;;;5033244;28;20046;-45
2022/03/07 02:46:47;;;;;;;29.40;13.50;;;-4.30;99.90;;;;;;5032333;28;20108;-43
2022/03/07 02:49:13;;;;;;;29.42;14.73;;;-4.30;99.90;;;;;;5032459;28;20042;-43
2022/03/07 02:51:39;;;;;;;31.35;14.18;;;-4.30;99.90;;;;;;5033138;28;20045;-43
2022/03/07 02:54:05;;;;;;;31.13;14.60;;;-4.30;99.90;;;;;;5033139;28;20088;-42
2022/03/07 02:56:31;;;;;;;29.42;13.80;;;-4.20;99.90;;;;;;5033413;28;20029;-44
2022/03/07 02:58:56;;;;;;;24.95;13.48;;;-4.20;99.90;;;;;;5033735;28;20061;-45
2022/03/07 03:01:22;;;;;;;30.52;15.07;;;-4.30;99.90;;;;;;5033175;28;20041;-43
2022/03/07 03:03:48;;;;;;;31.45;13.93;;;-4.30;99.90;;;;;;5031975;28;20041;-44
2022/03/07 03:06:14;;;;;;;33.13;15.57;;;-4.30;99.90;;;;;;5033236;28;20033;-43
2022/03/07 03:08:40;;;;;;;27.90;13.20;;;-4.30;99.90;;;;;;5033248;28;20442;-42
2022/03/07 03:11:05;;;;;;;28.98;13.48;;;-4.40;99.90;;;;;;5033196;28;20060;-43
2022/03/07 03:13:31;;;;;;;29.35;13.27;;;-4.40;99.90;;;;;;5033071;28;20490;-43
2022/03/07 03:15:57;;;;;;;34.13;14.30;;;-4.40;99.90;;;;;;5033237;28;20089;-43
2022/03/07 03:18:23;;;;;;;25.92;13.30;;;-4.40;99.90;;;;;;5032894;28;20053;-43
2022/03/07 03:20:51;;;;;;;29.52;14.18;;;-4.50;99.90;;;;;;5032859;28;20387;-43
2022/03/07 03:23:18;;;;;;;32.40;14.18;;;-4.50;99.90;;;;;;5032667;28;20089;-43
2022/03/07 03:25:44;;;;;;;28.63;13.60;;;-4.50;99.90;;;;;;5032528;28;20060;-43
2022/03/07 03:28:09;;;;;;;30.65;14.68;;;-4.50;99.90;;;;;;5032809;28;20387;-42
2022/03/07 03:30:36;;;;;;;30.73;15.73;;;-4.60;99.90;;;;;;5032653;28;20171;-42
2022/03/07 03:33:02;;;;;;;29.90;13.65;;;-4.60;99.90;;;;;;5032948;28;20486;-43
2022/03/07 03:35:28;;;;;;;27.00;13.73;;;-4.60;99.90;;;;;;5032436;28;20053;-43
2022/03/07 03:37:53;;;;;;;28.73;13.80;;;-4.60;99.90;;;;;;5032384;28;20488;-43
2022/03/07 03:40:19;;;;;;;34.10;15.50;;;-4.60;99.90;;;;;;5032813;28;20046;-43
2022/03/07 03:42:46;;;;;;;28.17;13.85;;;-4.60;99.90;;;;;;5032800;28;20472;-44
2022/03/07 03:45:12;;;;;;;30.85;14.27;;;-4.50;99.90;;;;;;5032679;28;20365;-43
2022/03/07 03:47:39;;;;;;;29.17;13.63;;;-4.40;99.90;;;;;;5032115;28;20042;-43
2022/03/07 03:50:07;;;;;;;32.85;14.32;;;-4.40;99.90;;;;;;5032425;28;20447;-42
2022/03/07 03:52:34;;;;;;;28.10;13.20;;;-4.30;99.90;;;;;;5032192;28;20042;-43
2022/03/07 03:55:02;;;;;;;27.95;12.50;;;-4.40;99.90;;;;;;5032557;28;20041;-42
2022/03/07 03:57:28;;;;;;;30.33;13.13;;;-4.40;99.90;;;;;;5032590;28;20041;-43
2022/03/07 03:59:54;;;;;;;28.55;12.95;;;-4.40;99.90;;;;;;5032252;28;20125;-43
2022/03/07 04:02:20;;;;;;;27.92;13.57;;;-4.40;99.90;;;;;;5032532;28;20128;-43
2022/03/07 04:04:46;;;;;;;31.65;12.85;;;-4.40;99.90;;;;;;5032082;28;20045;-43
2022/03/07 04:07:11;;;;;;;32.35;14.75;;;-4.40;99.90;;;;;;5032223;28;20037;-43
2022/03/07 04:09:37;;;;;;;32.20;14.85;;;-4.40;99.90;;;;;;5031943;28;20391;-43
2022/03/07 04:12:03;;;;;;;29.23;14.02;;;-4.40;99.90;;;;;;5032206;28;20037;-43
2022/03/07 04:14:29;;;;;;;34.22;14.30;;;-4.30;99.90;;;;;;5032014;28;20050;-45
2022/03/07 04:16:54;;;;;;;31.63;13.88;;;-4.40;99.90;;;;;;5032144;28;20072;-44
2022/03/07 04:19:20;;;;;;;32.00;14.85;;;-4.40;99.90;;;;;;5031656;28;20058;-43
2022/03/07 04:21:46;;;;;;;34.30;14.75;;;-4.40;99.90;;;;;;5032110;28;20045;-43
2022/03/07 04:24:12;;;;;;;42.72;17.52;;;-4.40;99.90;;;;;;5032037;28;20045;-43
2022/03/07 04:26:42;;;;;;;38.70;16.73;;;-4.40;99.90;;;;;;5031914;28;20044;-44
2022/03/07 04:29:09;;;;;;;41.75;16.83;;;-4.30;99.90;;;;;;5032049;28;20041;-43
2022/03/07 04:31:36;;;;;;;61.85;20.45;;;-4.30;99.90;;;;;;5031331;28;20045;-46
2022/03/07 04:34:03;;;;;;;76.13;23.55;;;-4.10;99.90;;;;;;5031982;28;20107;-43
2022/03/07 04:36:29;;;;;;;157.63;29.60;;;-4.00;99.90;;;;;;5031359;28;20506;-43
2022/03/07 04:38:54;;;;;;;117.88;31.52;;;-3.90;99.90;;;;;;5031420;28;20042;-44
2022/03/07 04:41:20;;;;;;;75.53;27.23;;;-3.80;99.90;;;;;;5031152;28;20030;-43
2022/03/07 04:43:46;;;;;;;74.65;24.90;;;-3.60;99.90;;;;;;5030993;28;20464;-44
2022/03/07 04:46:11;;;;;;;56.22;22.45;;;-3.50;99.90;;;;;;5031410;28;20049;-42
2022/03/07 04:48:38;;;;;;;64.68;22.73;;;-3.40;99.90;;;;;;5030975;28;20124;-43
2022/03/07 04:51:04;;;;;;;50.63;20.08;;;-3.40;99.90;;;;;;5031531;28;20049;-43
2022/03/07 04:53:30;;;;;;;54.33;20.35;;;-3.40;99.90;;;;;;5031434;28;20060;-43
2022/03/07 04:55:56;;;;;;;51.90;20.48;;;-3.50;99.90;;;;;;5031125;28;20240;-43
2022/03/07 04:58:21;;;;;;;47.10;19.17;;;-3.50;99.90;;;;;;5031197;28;20048;-44
2022/03/07 05:00:47;;;;;;;44.35;19.10;;;-3.50;99.90;;;;;;5031359;28;20044;-43
2022/03/07 05:03:13;;;;;;;41.95;17.65;;;-3.50;99.90;;;;;;5031210;28;20462;-43
2022/03/07 05:05:39;;;;;;;42.30;17.92;;;-3.50;99.90;;;;;;5030901;28;20152;-43
2022/03/07 05:08:05;;;;;;;40.35;17.02;;;-3.60;99.90;;;;;;5031219;28;20048;-42
2022/03/07 05:10:30;;;;;;;36.58;17.83;;;-3.70;99.90;;;;;;5031197;28;20045;-43
2022/03/07 05:12:56;;;;;;;36.65;17.42;;;-3.70;99.90;;;;;;5035451;28;20480;-43
2022/03/07 05:15:22;;;;;;;40.70;17.33;;;-3.80;99.90;;;;;;5037641;28;20133;-43
2022/03/07 05:17:53;;;;;;;37.45;15.90;;;-3.80;99.90;;;;;;5037330;28;20517;-43
2022/03/07 05:20:20;;;;;;;44.67;18.02;;;-3.90;99.90;;;;;;5037559;28;20049;-44
2022/03/07 05:22:46;;;;;;;39.67;16.52;;;-3.90;99.90;;;;;;5037432;28;20041;-44
2022/03/07 05:25:13;;;;;;;38.42;17.33;;;-3.90;99.90;;;;;;5037428;28;20404;-43
2022/03/07 05:27:39;;;;;;;36.92;17.15;;;-3.90;99.90;;;;;;5036193;28;20404;-43
2022/03/07 05:30:07;;;;;;;36.92;18.75;;;-3.80;99.90;;;;;;5037445;28;20033;-44
2022/03/07 05:32:32;;;;;;;39.55;18.48;;;-3.80;99.90;;;;;;5035947;28;20512;-42
2022/03/07 05:34:58;;;;;;;38.70;18.92;;;-3.70;99.90;;;;;;5037402;28;20074;-42
2022/03/07 05:37:24;;;;;;;41.03;19.90;;;-3.70;99.90;;;;;;5037819;28;20041;-42
2022/03/07 05:39:51;;;;;;;47.83;21.35;;;-3.60;99.90;;;;;;5037238;28;20037;-42
2022/03/07 05:42:17;;;;;;;43.83;20.17;;;-3.50;99.90;;;;;;5037187;28;20407;-42
2022/03/07 05:44:43;;;;;;;41.78;19.70;;;-3.40;99.90;;;;;;5037357;28;20053;-44
2022/03/07 05:47:08;;;;;;;48.20;21.15;;;-1.90;99.90;;;;;;5037445;28;20037;-43
2022/03/07 05:49:34;;;;;;;46.00;20.80;;;-3.40;99.90;;;;;;5037237;28;20140;-42
2022/03/07 05:52:00;;;;;;;49.20;20.50;;;-3.40;99.90;;;;;;5037052;28;20175;-42
2022/03/07 05:54:26;;;;;;;47.22;20.17;;;-3.40;99.90;;;;;;5037004;28;20087;-44
2022/03/07 05:56:51;;;;;;;42.90;19.75;;;-3.50;99.90;;;;;;5035947;28;20045;-44
2022/03/07 05:59:17;;;;;;;47.85;20.38;;;-3.60;99.90;;;;;;5036984;28;20084;-44
2022/03/07 06:01:43;;;;;;;40.75;19.50;;;-3.60;99.90;;;;;;5037239;28;20094;-43
2022/03/07 06:04:09;;;;;;;38.53;19.23;;;-3.70;99.90;;;;;;5036959;28;20076;-47
2022/03/07 06:06:35;;;;;;;44.50;19.60;;;-3.70;99.90;;;;;;5037341;28;20041;-43
2022/03/07 06:09:01;;;;;;;39.53;19.40;;;-3.60;99.90;;;;;;5037164;28;20479;-43
2022/03/07 06:11:27;;;;;;;39.17;18.83;;;-3.60;99.90;;;;;;5037124;28;20084;-46
2022/03/07 06:13:53;;;;;;;45.53;20.63;;;-3.50;99.90;;;;;;5037039;28;20388;-43
2022/03/07 06:16:19;;;;;;;44.20;20.92;;;-3.50;99.90;;;;;;5037072;28;20052;-45
2022/03/07 06:18:45;;;;;;;45.45;21.45;;;-3.50;99.90;;;;;;5037020;28;20057;-44
2022/03/07 06:21:10;;;;;;;49.70;22.42;;;-3.40;99.90;;;;;;5036715;28;20061;-42
2022/03/07 06:23:36;;;;;;;50.35;22.65;;;-3.20;99.90;;;;;;5035725;28;20037;-44
2022/03/07 06:26:05;;;;;;;48.97;22.02;;;-3.00;99.90;;;;;;5033580;28;20502;-43
2022/03/07 06:28:30;;;;;;;50.03;22.23;;;-2.70;99.90;;;;;;5034190;28;20041;-43
2022/03/07 06:30:56;;;;;;;50.67;21.73;;;-2.30;99.90;;;;;;5033639;28;20052;-44
2022/03/07 06:33:22;;;;;;;49.50;22.13;;;-2.30;99.90;;;;;;5034012;28;20124;-44
2022/03/07 06:35:47;;;;;;;52.55;22.35;;;-2.30;99.90;;;;;;5033628;28;20042;-43
2022/03/07 06:38:13;;;;;;;55.28;21.85;;;-2.30;99.90;;;;;;5033782;28;20052;-43
2022/03/07 06:40:39;;;;;;;48.47;23.02;;;-2.40;99.90;;;;;;5033563;28;20045;-43
2022/03/07 06:43:04;;;;;;;51.22;22.08;;;-2.40;99.90;;;;;;5033374;28;20047;-42
2022/03/07 06:45:31;;;;;;;52.90;23.23;;;-2.40;99.90;;;;;;5033293;28;20045;-43
2022/03/07 06:47:57;;;;;;;60.03;23.42;;;-2.40;99.90;;;;;;5033109;28;20037;-44
2022/03/07 06:50:23;;;;;;;53.58;23.85;;;-2.30;99.90;;;;;;5033536;28;20132;-44
2022/03/07 06:52:49;;;;;;;59.75;24.02;;;-2.20;99.90;;;;;;5033529;28;20120;-43
2022/03/07 06:55:15;;;;;;;59.72;24.92;;;-2.10;99.90;;;;;;5033194;28;20116;-42
2022/03/07 06:57:42;;;;;;;48.58;21.52;;;-2.00;99.90;;;;;;5033186;28;20119;-45
2022/03/07 07:00:11;;;;;;;40.70;20.20;;;-2.00;99.90;;;;;;5033031;28;20054;-43
2022/03/07 07:02:37;;;;;;;49.20;21.15;;;-1.90;99.90;;;;;;5033139;28;20544;-44
2022/03/07 07:05:04;;;;;;;42.50;19.73;;;-1.20;99.90;;;;;;5031532;28;20054;-43
2022/03/07 07:07:30;;;;;;;40.75;19.83;;;-1.80;99.90;;;;;;5032911;28;20048;-42
2022/03/07 07:09:56;;;;;;;43.30;20.80;;;-1.90;99.90;;;;;;5032961;28;20068;-44
2022/03/07 07:12:22;;;;;;;39.38;20.67;;;-1.80;99.90;;;;;;5032851;28;20045;-44
2022/03/07 07:14:48;;;;;;;40.55;20.60;;;-1.70;99.90;;;;;;5033184;28;20047;-44
2022/03/07 07:17:14;;;;;;;45.03;19.85;;;-1.60;99.90;;;;;;5032889;28;20086;-43
2022/03/07 07:19:40;;;;;;;50.58;23.00;;;-1.40;99.90;;;;;;5032606;28;20088;-45
2022/03/07 07:22:06;;;;;;;38.63;22.15;;;-1.30;99.90;;;;;;5032965;28;20431;-43
2022/03/07 07:24:32;;;;;;;50.38;23.13;;;-1.20;99.90;;;;;;5032688;28;20152;-42
2022/03/07 07:26:57;;;;;;;46.88;24.33;;;-1.00;99.90;;;;;;5032271;28;20095;-43
2022/03/07 07:29:23;;;;;;;48.47;22.95;;;-0.60;99.90;;;;;;5032808;28;20084;-43
2022/03/07 07:31:51;;;;;;;43.83;23.10;;;-0.20;99.90;;;;;;5032362;28;20487;-44
2022/03/07 07:34:17;;;;;;;43.10;21.02;;;-0.20;99.90;;;;;;5032589;28;20085;-43
2022/03/07 07:36:43;;;;;;;41.95;22.25;;;0.30;99.90;;;;;;5031972;28;20042;-43
2022/03/07 07:39:08;;;;;;;41.10;21.98;;;-0.20;99.90;;;;;;5032032;28;20044;-44
2022/03/07 07:41:34;;;;;;;35.40;19.92;;;0.20;99.90;;;;;;5032532;28;20037;-46
2022/03/07 07:44:00;;;;;;;43.20;21.98;;;0.40;99.90;;;;;;5032006;28;20403;-44
2022/03/07 07:46:26;;;;;;;32.97;19.35;;;0.30;99.90;;;;;;5032502;28;20084;-43
2022/03/07 07:48:52;;;;;;;35.13;19.85;;;0.30;99.90;;;;;;5032351;28;20048;-43
2022/03/07 07:51:18;;;;;;;32.13;19.52;;;0.70;99.90;;;;;;5032180;28;20045;-42
2022/03/07 07:53:43;;;;;;;37.42;21.30;;;1.00;99.90;;;;;;5032336;28;20045;-43
2022/03/07 07:56:09;;;;;;;32.05;18.63;;;1.20;99.90;;;;;;5031722;28;20037;-43
2022/03/07 07:58:35;;;;;;;28.98;18.33;;;1.20;99.90;;;;;;5032361;28;20156;-43
2022/03/07 08:01:01;;;;;;;30.15;17.90;;;1.30;99.90;;;;;;5032001;28;20132;-44
2022/03/07 08:03:27;;;;;;;32.45;19.75;;;1.60;99.90;;;;;;5032130;28;20050;-43
2022/03/07 08:05:52;;;;;;;34.17;18.90;;;1.70;99.90;;;;;;5031881;28;20042;-43
2022/03/07 08:08:18;;;;;;;30.27;19.73;;;1.50;99.90;;;;;;5031760;28;20504;-44
2022/03/07 08:10:44;;;;;;;34.63;19.88;;;2.20;99.90;;;;;;5031713;28;20067;-43
2022/03/07 08:13:11;;;;;;;37.63;20.60;;;2.20;99.90;;;;;;5031915;28;20041;-44
2022/03/07 08:15:37;;;;;;;34.65;20.17;;;3.20;99.90;;;;;;5031936;28;20053;-45
2022/03/07 08:18:02;;;;;;;31.65;20.08;;;4.40;99.90;;;;;;5031847;28;20049;-45
2022/03/07 08:20:28;;;;;;;28.83;18.65;;;4.80;99.90;;;;;;5031233;28;20057;-44
2022/03/07 08:22:54;;;;;;;29.73;18.15;;;5.60;99.90;;;;;;5031275;28;20407;-43
2022/03/07 08:25:21;;;;;;;28.88;17.25;;;6.80;99.90;;;;;;5031706;28;20037;-45
2022/03/07 08:27:48;;;;;;;22.75;16.23;;;6.10;99.90;;;;;;5031890;28;20434;-43
2022/03/07 08:30:18;;;;;;;25.42;16.80;;;6.30;99.90;;;;;;5031634;28;20038;-44
2022/03/07 08:32:43;;;;;;;21.88;14.50;;;6.50;99.90;;;;;;5031328;28;20053;-45
2022/03/07 08:35:11;;;;;;;18.60;12.93;;;6.80;99.90;;;;;;5031263;28;20048;-44
2022/03/07 08:37:37;;;;;;;17.88;12.20;;;7.40;99.90;;;;;;5031471;28;20121;-45
2022/03/07 08:40:05;;;;;;;17.50;10.25;;;7.80;99.90;;;;;;5031129;28;20046;-44
2022/03/07 08:42:31;;;;;;;15.52;9.23;;;8.90;99.90;;;;;;5031079;28;20053;-45
2022/03/07 08:44:57;;;;;;;16.13;8.80;;;10.20;99.90;;;;;;5031432;28;20055;-44
2022/03/07 08:47:23;;;;;;;11.52;7.38;;;11.50;99.90;;;;;;5030240;28;20041;-45
2022/03/07 08:49:49;;;;;;;9.15;6.78;;;12.70;99.90;;;;;;5031345;28;20048;-44
2022/03/07 08:52:17;;;;;;;11.52;6.32;;;13.60;99.90;;;;;;5031191;28;20491;-46
2022/03/07 08:54:47;;;;;;;8.57;5.55;;;14.20;99.90;;;;;;5030777;28;20120;-46
2022/03/07 08:57:13;;;;;;;10.88;6.30;;;14.50;99.90;;;;;;5029538;28;20411;-45
2022/03/07 08:59:39;;;;;;;7.85;5.20;;;15.10;99.90;;;;;;5031416;28;20048;-46
2022/03/07 09:02:05;;;;;;;12.90;4.22;;;15.80;99.90;;;;;;5031069;28;20048;-44
2022/03/07 09:04:32;;;;;;;8.63;3.85;;;15.70;99.90;;;;;;5030822;28;20045;-45
2022/03/07 09:06:58;;;;;;;5.68;3.58;;;15.00;99.90;;;;;;5031282;28;20052;-47
2022/03/07 09:09:23;;;;;;;6.85;3.55;;;14.70;99.90;;;;;;5030996;28;20037;-45
2022/03/07 09:11:49;;;;;;;6.30;3.47;;;14.10;99.90;;;;;;5024700;28;20102;-57
2022/03/07 09:14:15;;;;;;;8.80;4.00;;;14.20;99.90;;;;;;5026577;28;20070;-57
2022/03/07 09:16:42;;;;;;;6.93;3.42;;;15.10;99.90;;;;;;5029258;28;20045;-57
2022/03/07 09:19:08;;;;;;;4.80;2.88;;;16.10;99.90;;;;;;5030263;28;20060;-56
2022/03/07 09:21:34;;;;;;;6.78;2.97;;;17.00;97.90;;;;;;5030249;28;20042;-57
2022/03/07 09:24:00;;;;;;;5.03;2.38;;;17.90;95.50;;;;;;5030181;28;20060;-57
2022/03/07 09:26:26;;;;;;;6.47;2.10;;;18.50;93.30;;;;;;5029801;28;20132;-57
2022/03/07 09:28:52;;;;;;;6.25;2.03;;;18.60;91.20;;;;;;5030093;28;20122;-57
2022/03/07 09:31:18;;;;;;;5.57;1.42;;;18.50;90.10;;;;;;5030471;28;20037;-57
2022/03/07 09:33:44;;;;;;;4.38;1.38;;;18.50;87.80;;;;;;5030857;28;20044;-57
2022/03/07 09:36:10;;;;;;;4.50;1.35;;;18.70;85.10;;;;;;5030447;28;20057;-57
2022/03/07 09:38:36;;;;;;;6.93;1.95;;;18.80;82.60;;;;;;5030000;28;20501;-57
2022/03/07 09:41:03;;;;;;;4.97;1.48;;;18.20;82.30;;;;;;5030186;28;20109;-57
2022/03/07 09:43:29;;;;;;;3.33;1.52;;;17.70;82.60;;;;;;5030073;28;20056;-57
2022/03/07 09:45:55;;;;;;;6.00;2.17;;;17.10;83.20;;;;;;5030028;28;20057;-57
2022/03/07 09:48:23;;;;;;;4.53;1.73;;;17.00;84.20;;;;;;5030073;28;20048;-57
2022/03/07 09:50:49;;;;;;;5.50;1.48;;;17.50;82.80;;;;;;5030343;28;20056;-53
2022/03/07 09:53:16;;;;;;;8.48;2.25;;;18.20;81.00;;;;;;5029579;28;20523;-48
2022/03/07 09:55:43;;;;;;;4.40;1.73;;;18.60;77.40;;;;;;5029658;28;20080;-42
2022/03/07 09:58:09;;;;;;;6.32;1.33;;;18.70;77.30;;;;;;5030823;28;20041;-50
2022/03/07 10:00:36;;;;;;;9.23;1.20;;;18.50;75.10;;;;;;5033482;28;20055;-46
2022/03/07 10:03:09;;;;;;;4.97;1.10;;;18.10;74.60;;;;;;5033635;28;20094;-45
2022/03/07 10:05:37;;;;;;;5.25;1.35;;;17.90;73.70;;;;;;5033675;28;20095;-47
2022/03/07 10:08:08;;;;;;;3.42;0.52;;;17.90;73.50;;;;;;5033360;28;20041;-48
2022/03/07 10:10:41;;;;;;;4.78;1.00;;;17.10;71.40;;;;;;5033515;28;20117;-47
2022/03/07 10:13:12;;;;;;;6.35;1.30;;;15.90;71.80;;;;;;5033296;28;20049;-49
2022/03/07 10:15:40;;;;;;;6.78;1.15;;;15.10;74.90;;;;;;5033136;28;20048;-50
2022/03/07 10:18:14;;;;;;;4.22;1.17;;;15.00;77.70;;;;;;5033735;28;20130;-48
2022/03/07 10:20:49;;;;;;;4.88;1.17;;;15.10;77.10;;;;;;5032749;28;20535;-48
2022/03/07 10:23:15;;;;;;;6.40;1.20;;;15.80;76.40;;;;;;5033307;28;20045;-51
2022/03/07 10:25:43;;;;;;;5.22;1.20;;;16.40;76.30;;;;;;5033171;28;20997;-54
2022/03/07 10:28:10;;;;;;;7.20;1.67;;;15.90;73.50;;;;;;5033125;28;20044;-48
2022/03/07 10:30:37;;;;;;;7.78;1.67;;;14.90;73.40;;;;;;5032735;28;20518;-52
2022/03/07 10:33:08;;;;;;;5.57;1.40;;;14.20;74.90;;;;;;5032825;28;20050;-44
2022/03/07 10:35:37;;;;;;;5.97;1.87;;;13.80;77.10;;;;;;5033075;28;20387;-53
2022/03/07 10:38:09;;;;;;;3.65;1.30;;;13.70;76.90;;;;;;5033369;28;20276;-50
2022/03/07 10:40:39;;;;;;;6.35;1.52;;;13.00;75.40;;;;;;5033253;28;20039;-52
2022/03/07 10:43:06;;;;;;;4.57;1.77;;;12.60;77.40;;;;;;5033215;28;20072;-53
2022/03/07 10:45:43;;;;;;;6.75;1.70;;;13.20;78.30;;;;;;5032316;28;20877;-51
2022/03/07 10:48:10;;;;;;;5.60;1.58;;;13.70;77.20;;;;;;5032886;28;20509;-56
2022/03/07 10:50:35;;;;;;;4.35;1.60;;;13.90;76.00;;;;;;5032812;28;20084;-54
2022/03/07 10:53:05;;;;;;;3.55;1.45;;;13.90;75.70;;;;;;5032670;28;20068;-57
2022/03/07 10:55:32;;;;;;;6.97;1.83;;;13.80;74.70;;;;;;5031706;28;20041;-57
2022/03/07 10:58:12;;;;;;;5.78;1.23;;;13.70;73.80;;;;;;5030598;28;20107;-57
2022/03/07 11:00:58;;;;;;;5.25;1.92;;;13.90;73.60;;;;;;5030906;28;20128;-53
2022/03/07 11:03:30;;;;;;;3.33;1.02;;;13.80;74.60;;;;;;5031865;28;20045;-53
2022/03/07 11:05:57;;;;;;;6.05;1.23;;;13.60;73.30;;;;;;5031243;28;20045;-46
2022/03/07 11:08:24;;;;;;;3.15;1.52;;;12.70;72.40;;;;;;5030999;28;20047;-49
2022/03/07 11:10:52;;;;;;;5.50;1.80;;;11.70;73.90;;;;;;5029887;28;20045;-57
2022/03/07 11:13:19;;;;;;;3.88;1.48;;;11.10;75.40;;;;;;5029342;28;20133;-46
2022/03/07 11:15:47;;;;;;;4.13;1.38;;;10.60;77.50;;;;;;5030698;28;20052;-43
2022/03/07 11:18:15;;;;;;;2.88;0.80;;;11.10;79.60;;;;;;5030629;28;20053;-41
2022/03/07 11:20:44;;;;;;;6.45;0.98;;;9.80;79.50;;;;;;5030550;28;20061;-47
2022/03/07 11:23:13;;;;;;;2.75;0.60;;;9.70;79.70;;;;;;5030677;28;20038;-43
2022/03/07 11:25:40;;;;;;;5.05;1.10;;;9.40;78.50;;;;;;5028989;28;20505;-48
2022/03/07 11:28:06;;;;;;;3.88;0.95;;;8.70;79.60;;;;;;5030700;28;20593;-46
2022/03/07 11:30:39;;;;;;;3.58;1.35;;;8.60;81.00;;;;;;5030436;28;20121;-44
2022/03/07 11:33:13;;;;;;;3.58;0.75;;;8.30;81.40;;;;;;5030330;28;20041;-43
2022/03/07 11:35:47;;;;;;;1.95;1.20;;;8.30;81.30;;;;;;5030497;28;20049;-43
2022/03/07 11:38:35;;;;;;;3.72;1.10;;;9.00;82.40;;;;;;5029539;28;20045;-45
2022/03/07 11:41:06;;;;;;;2.22;0.40;;;8.10;83.10;;;;;;5030368;28;20072;-44
2022/03/07 11:43:56;;;;;;;3.75;1.30;;;8.10;82.40;;;;;;5030562;28;20092;-45
2022/03/07 11:46:33;;;;;;;3.50;1.15;;;7.90;81.70;;;;;;5030435;28;20049;-45
2022/03/07 11:49:00;;;;;;;2.65;0.57;;;7.70;83.10;;;;;;5030826;28;20033;-44
2022/03/07 11:51:28;;;;;;;2.38;0.80;;;8.70;84.40;;;;;;5030618;28;20041;-44
2022/03/07 11:53:55;;;;;;;4.32;1.00;;;7.50;83.80;;;;;;5030615;28;20037;-43
2022/03/07 11:56:27;;;;;;;4.85;1.25;;;7.40;84.20;;;;;;5030592;28;20046;-42
2022/03/07 11:58:55;;;;;;;4.72;0.90;;;7.70;84.40;;;;;;5029078;28;20920;-45
2022/03/07 12:01:23;;;;;;;2.55;0.80;;;7.70;83.40;;;;;;5030324;28;20045;-45
2022/03/07 12:03:50;;;;;;;3.95;0.95;;;7.60;83.50;;;;;;5029934;28;20045;-44
2022/03/07 12:06:18;;;;;;;2.85;0.68;;;7.70;83.90;;;;;;5030187;28;20043;-46
2022/03/07 12:08:56;;;;;;;2.45;0.55;;;8.00;85.10;;;;;;5029893;28;20129;-43
2022/03/07 12:11:35;;;;;;;2.40;0.68;;;7.80;83.90;;;;;;5030250;28;20372;-43
2022/03/07 12:14:06;;;;;;;3.13;0.60;;;7.80;83.70;;;;;;5030278;28;20539;-43
2022/03/07 12:16:37;;;;;;;4.33;1.00;;;8.10;83.40;;;;;;5030400;28;20037;-44
2022/03/07 12:19:15;;;;;;;2.50;0.30;;;7.70;83.20;;;;;;5030059;28;20058;-50
2022/03/07 12:21:49;;;;;;;3.67;0.55;;;7.60;82.90;;;;;;5029999;28;20060;-48
2022/03/07 12:24:19;;;;;;;1.48;0.50;;;7.70;82.30;;;;;;5028499;28;20037;-49
2022/03/07 12:26:50;;;;;;;2.80;0.50;;;7.60;82.10;;;;;;5029313;28;20475;-50
2022/03/07 12:29:19;;;;;;;3.27;0.30;;;7.60;81.00;;;;;;5029904;28;20442;-47
2022/03/07 12:32:06;;;;;;;3.60;0.52;;;7.70;80.80;;;;;;5029401;28;20037;-48
2022/03/07 12:34:33;;;;;;;1.73;0.40;;;7.80;80.10;;;;;;5029571;28;20057;-44